Time;durP1;ratioP1;P1;durP2;ratioP2;P2;SDS_P1;SDS_P2;PMS_P1;PMS_P2;Temp;Humidity;BMP_temperature;BMP_pressure;BME280_temperature;BME280_humidity;BME280_pressure;Samples;Min_cycle;Max_cycle;Signal;HPM_P1;HPM_P2
2023/06/02 00:01:06;;;;;;;7.88;1.83;;;13.20;98.40;;;;;;5084875;28;20028;-42
2023/06/02 00:03:34;;;;;;;7.03;2.20;;;13.30;98.40;;;;;;5084131;28;20075;-42
2023/06/02 00:06:05;;;;;;;5.35;2.15;;;13.30;98.40;;;;;;5086587;28;20252;-42
2023/06/02 00:08:33;;;;;;;5.40;2.10;;;13.30;98.40;;;;;;5085071;28;20028;-42
2023/06/02 00:11:00;;;;;;;8.48;1.73;;;13.30;98.40;;;;;;5085816;28;20035;-41
2023/06/02 00:13:26;;;;;;;6.75;2.13;;;13.30;98.40;;;;;;5085533;28;20547;-42
2023/06/02 00:15:52;;;;;;;5.70;1.90;;;13.30;98.30;;;;;;5085764;28;20101;-43
2023/06/02 00:18:20;;;;;;;10.98;2.50;;;13.20;98.40;;;;;;5085647;28;20422;-41
2023/06/02 00:20:46;;;;;;;5.93;1.88;;;13.20;98.40;;;;;;5084520;28;20028;-40
2023/06/02 00:23:12;;;;;;;3.55;1.67;;;13.20;98.40;;;;;;5085486;28;20427;-43
2023/06/02 00:25:39;;;;;;;8.60;2.28;;;13.10;98.50;;;;;;5085042;28;20062;-43
2023/06/02 00:28:05;;;;;;;4.55;1.63;;;13.20;98.50;;;;;;5083612;28;20518;-41
2023/06/02 00:30:31;;;;;;;3.78;1.48;;;13.20;98.50;;;;;;5069436;28;20032;-42
2023/06/02 00:32:57;;;;;;;5.43;2.42;;;13.20;98.50;;;;;;5085532;28;20097;-42
2023/06/02 00:35:22;;;;;;;7.75;2.35;;;13.20;98.40;;;;;;5084998;28;20031;-41
2023/06/02 00:37:48;;;;;;;5.78;1.90;;;13.20;98.40;;;;;;5085077;28;20066;-42
2023/06/02 00:40:17;;;;;;;6.53;2.40;;;13.20;98.40;;;;;;5085309;28;20063;-43
2023/06/02 00:42:42;;;;;;;2.47;1.45;;;13.20;98.50;;;;;;5085245;28;20404;-43
2023/06/02 00:45:08;;;;;;;6.35;1.70;;;13.30;98.50;;;;;;5084770;28;20463;-43
2023/06/02 00:47:34;;;;;;;5.85;2.25;;;13.20;98.50;;;;;;5085174;28;20115;-42
2023/06/02 00:50:00;;;;;;;6.47;2.08;;;13.20;98.50;;;;;;5084736;28;20190;-43
2023/06/02 00:52:26;;;;;;;5.88;2.17;;;13.20;98.50;;;;;;5084724;28;20103;-41
2023/06/02 00:54:53;;;;;;;5.10;1.75;;;13.20;98.60;;;;;;5083412;28;20023;-42
2023/06/02 00:57:19;;;;;;;5.88;2.03;;;13.20;98.50;;;;;;5083694;28;20047;-42
2023/06/02 00:59:47;;;;;;;6.68;1.92;;;13.20;98.60;;;;;;5084675;28;20040;-42
2023/06/02 01:02:13;;;;;;;5.38;1.98;;;13.10;98.60;;;;;;5084560;28;20023;-43
2023/06/02 01:04:40;;;;;;;7.25;2.00;;;13.10;98.60;;;;;;5084289;28;20024;-41
2023/06/02 01:07:10;;;;;;;7.40;2.22;;;13.10;98.60;;;;;;5084164;28;20425;-41
2023/06/02 01:09:36;;;;;;;9.43;2.58;;;13.00;98.50;;;;;;5084602;28;20028;-41
2023/06/02 01:12:02;;;;;;;7.53;2.20;;;13.00;98.40;;;;;;5084029;28;20027;-42
2023/06/02 01:14:28;;;;;;;6.82;2.70;;;12.90;98.40;;;;;;5074373;28;20113;-43
2023/06/02 01:16:57;;;;;;;10.63;3.00;;;12.90;98.40;;;;;;5084555;28;20024;-41
2023/06/02 01:19:25;;;;;;;6.95;2.50;;;12.80;98.30;;;;;;5079473;28;20044;-43
2023/06/02 01:22:01;;;;;;;8.60;2.30;;;12.80;98.40;;;;;;5065922;28;20048;-40
2023/06/02 01:24:38;;;;;;;9.60;2.60;;;12.80;98.30;;;;;;5081306;28;20024;-42
2023/06/02 01:27:06;;;;;;;4.78;2.08;;;12.80;98.30;;;;;;5083715;28;20489;-41
2023/06/02 01:29:35;;;;;;;6.30;2.17;;;12.80;98.30;;;;;;5082223;28;20830;-41
2023/06/02 01:32:07;;;;;;;7.00;2.22;;;12.80;98.30;;;;;;5084424;28;20122;-42
2023/06/02 01:34:41;;;;;;;5.78;2.50;;;12.70;98.20;;;;;;5082622;28;20032;-43
2023/06/02 01:37:10;;;;;;;9.60;2.58;;;12.70;98.10;;;;;;5076138;28;20124;-41
2023/06/02 01:39:38;;;;;;;6.05;2.20;;;12.60;98.10;;;;;;5076967;28;20884;-42
2023/06/02 01:42:05;;;;;;;5.75;1.85;;;12.50;98.10;;;;;;5084328;28;20073;-42
2023/06/02 01:44:31;;;;;;;7.80;2.63;;;12.50;98.20;;;;;;5083921;28;20474;-42
2023/06/02 01:47:01;;;;;;;4.53;1.92;;;12.50;98.20;;;;;;5070667;28;20509;-41
2023/06/02 01:49:29;;;;;;;7.82;2.60;;;12.50;98.10;;;;;;5079589;28;20032;-42
2023/06/02 01:51:54;;;;;;;5.57;2.22;;;12.50;98.20;;;;;;5084500;28;20359;-42
2023/06/02 01:54:21;;;;;;;4.15;2.03;;;12.40;98.20;;;;;;5083493;28;20039;-43
2023/06/02 01:56:47;;;;;;;6.20;2.03;;;12.40;98.30;;;;;;5083903;28;20028;-42
2023/06/02 01:59:13;;;;;;;6.22;2.30;;;12.40;98.30;;;;;;5083047;28;20047;-42
2023/06/02 02:01:40;;;;;;;7.90;2.10;;;12.50;98.30;;;;;;5083112;28;20423;-43
2023/06/02 02:04:06;;;;;;;6.53;2.17;;;12.50;98.30;;;;;;5083470;28;20037;-42
2023/06/02 02:06:32;;;;;;;9.00;2.28;;;12.50;98.30;;;;;;5083359;28;20043;-43
2023/06/02 02:09:00;;;;;;;5.65;2.20;;;12.50;98.40;;;;;;5083119;28;20123;-43
2023/06/02 02:11:27;;;;;;;9.80;2.40;;;12.40;98.40;;;;;;5083555;28;20740;-42
2023/06/02 02:13:54;;;;;;;5.55;2.10;;;12.40;98.50;;;;;;5082947;28;20050;-43
2023/06/02 02:16:23;;;;;;;5.57;2.13;;;12.40;98.50;;;;;;5082719;28;20012;-42
2023/06/02 02:18:52;;;;;;;6.53;2.13;;;12.40;98.50;;;;;;5083668;28;20038;-45
2023/06/02 02:21:17;;;;;;;5.53;2.33;;;12.40;98.50;;;;;;5079623;28;20016;-41
2023/06/02 02:23:43;;;;;;;5.95;2.20;;;12.40;98.60;;;;;;5083492;28;20043;-43
2023/06/02 02:26:08;;;;;;;6.28;3.00;;;12.40;98.60;;;;;;5082087;28;20031;-42
2023/06/02 02:28:34;;;;;;;5.90;2.55;;;12.40;98.50;;;;;;5082505;28;20024;-42
2023/06/02 02:30:59;;;;;;;5.18;2.13;;;12.30;98.50;;;;;;5083792;28;20035;-42
2023/06/02 02:33:25;;;;;;;5.75;2.15;;;12.30;98.50;;;;;;5082718;28;20032;-41
2023/06/02 02:35:53;;;;;;;7.82;2.03;;;12.30;98.60;;;;;;5083035;28;20028;-43
2023/06/02 02:38:19;;;;;;;7.80;2.35;;;12.30;98.60;;;;;;5081912;28;20134;-43
2023/06/02 02:40:44;;;;;;;5.88;1.60;;;12.30;98.60;;;;;;5082760;28;20028;-42
2023/06/02 02:43:15;;;;;;;5.55;1.95;;;12.20;98.70;;;;;;5082639;28;20040;-41
2023/06/02 02:45:41;;;;;;;4.22;1.38;;;12.20;98.70;;;;;;5083422;28;20031;-43
2023/06/02 02:48:07;;;;;;;3.55;1.65;;;12.30;98.70;;;;;;5083234;28;20020;-42
2023/06/02 02:50:33;;;;;;;5.45;1.67;;;12.30;98.70;;;;;;5082349;28;20510;-43
2023/06/02 02:52:59;;;;;;;3.85;1.52;;;12.30;98.70;;;;;;5083869;28;20028;-42
2023/06/02 02:55:25;;;;;;;3.97;1.75;;;12.30;98.80;;;;;;5082621;28;20039;-42
2023/06/02 02:57:51;;;;;;;7.13;2.13;;;12.30;98.80;;;;;;5082672;28;20047;-42
2023/06/02 03:00:17;;;;;;;3.97;1.60;;;12.30;98.80;;;;;;5082774;28;20039;-42
2023/06/02 03:02:42;;;;;;;4.60;1.63;;;12.30;98.80;;;;;;5082805;28;20550;-42
2023/06/02 03:05:13;;;;;;;6.63;1.70;;;12.30;98.80;;;;;;5082102;28;20107;-42
2023/06/02 03:07:44;;;;;;;5.13;1.50;;;12.30;98.80;;;;;;5081742;28;20028;-43
2023/06/02 03:10:16;;;;;;;4.70;1.73;;;12.30;98.80;;;;;;5081514;28;20055;-40
2023/06/02 03:12:41;;;;;;;5.70;1.70;;;12.30;98.80;;;;;;5081255;28;20024;-42
2023/06/02 03:15:07;;;;;;;4.32;1.70;;;12.30;98.80;;;;;;5083055;28;20031;-42
2023/06/02 03:17:34;;;;;;;4.18;1.33;;;12.30;98.90;;;;;;5084092;28;20376;-42
2023/06/02 03:20:00;;;;;;;4.25;1.50;;;12.30;98.90;;;;;;5085832;28;20020;-43
2023/06/02 03:22:28;;;;;;;5.63;1.60;;;12.30;98.90;;;;;;5085423;28;20035;-42
2023/06/02 03:24:54;;;;;;;7.60;2.45;;;12.30;99.00;;;;;;5085269;28;20040;-42
2023/06/02 03:27:19;;;;;;;4.10;1.70;;;12.30;99.00;;;;;;5085701;28;20028;-43
2023/06/02 03:29:45;;;;;;;3.45;1.60;;;12.20;99.00;;;;;;5086148;28;20056;-42
2023/06/02 03:32:12;;;;;;;5.30;1.88;;;12.20;99.00;;;;;;5085273;28;20115;-42
2023/06/02 03:34:39;;;;;;;5.15;1.33;;;12.20;99.10;;;;;;5085702;28;20036;-42
2023/06/02 03:37:05;;;;;;;3.40;1.52;;;12.20;99.10;;;;;;5086935;28;20030;-43
2023/06/02 03:39:31;;;;;;;6.18;1.65;;;12.20;99.10;;;;;;5085554;28;20050;-43
2023/06/02 03:41:56;;;;;;;6.47;1.83;;;12.20;99.10;;;;;;5086455;28;20478;-42
2023/06/02 03:44:22;;;;;;;5.57;1.73;;;12.20;99.10;;;;;;5086310;28;20170;-41
2023/06/02 03:46:48;;;;;;;3.63;1.70;;;12.20;99.20;;;;;;5085804;28;20540;-41
2023/06/02 03:49:13;;;;;;;5.28;1.83;;;12.20;99.20;;;;;;5085001;28;20032;-43
2023/06/02 03:51:42;;;;;;;4.93;1.83;;;12.20;99.20;;;;;;5086243;28;20463;-43
2023/06/02 03:54:07;;;;;;;3.17;1.90;;;12.20;99.20;;;;;;5085001;28;20071;-42
2023/06/02 03:56:33;;;;;;;4.90;1.52;;;12.20;99.20;;;;;;5085620;28;20070;-42
2023/06/02 03:58:58;;;;;;;4.78;1.58;;;12.10;99.20;;;;;;5085699;28;20128;-41
2023/06/02 04:01:24;;;;;;;4.38;1.60;;;12.20;99.20;;;;;;5084572;28;20761;-42
2023/06/02 04:03:50;;;;;;;5.95;1.70;;;12.20;99.30;;;;;;5085754;28;20502;-42
2023/06/02 04:06:15;;;;;;;6.55;1.80;;;12.20;99.20;;;;;;5086162;28;20026;-43
2023/06/02 04:08:41;;;;;;;3.60;1.60;;;12.20;99.30;;;;;;5085013;28;20552;-43
2023/06/02 04:11:07;;;;;;;5.72;1.85;;;12.10;99.30;;;;;;5086030;28;20672;-42
2023/06/02 04:13:33;;;;;;;5.07;1.90;;;12.20;99.30;;;;;;5085954;28;20073;-43
2023/06/02 04:15:59;;;;;;;6.22;1.92;;;12.10;99.30;;;;;;5085734;28;20024;-43
2023/06/02 04:18:26;;;;;;;4.63;1.52;;;12.10;99.30;;;;;;5072856;28;20044;-40
2023/06/02 04:20:54;;;;;;;6.28;1.30;;;12.20;99.30;;;;;;5085242;28;20834;-43
2023/06/02 04:23:20;;;;;;;8.40;2.00;;;12.20;99.30;;;;;;5085076;28;20106;-42
2023/06/02 04:25:45;;;;;;;9.18;2.97;;;12.20;99.20;;;;;;5085430;28;20036;-43
2023/06/02 04:28:11;;;;;;;6.88;1.73;;;12.10;99.20;;;;;;5084203;28;20021;-42
2023/06/02 04:30:41;;;;;;;7.20;1.90;;;12.10;99.20;;;;;;5085012;28;20024;-42
2023/06/02 04:33:08;;;;;;;4.60;1.92;;;12.10;99.30;;;;;;5085503;28;20756;-42
2023/06/02 04:35:36;;;;;;;4.05;1.70;;;12.00;99.30;;;;;;5083801;28;20020;-46
2023/06/02 04:38:05;;;;;;;6.13;1.70;;;12.10;99.20;;;;;;5085850;28;20399;-41
2023/06/02 04:40:31;;;;;;;5.53;1.70;;;12.00;99.20;;;;;;5083440;28;20031;-43
2023/06/02 04:42:56;;;;;;;7.40;1.73;;;12.10;99.20;;;;;;5084867;28;20043;-43
2023/06/02 04:45:23;;;;;;;4.43;1.83;;;12.10;99.10;;;;;;5076904;28;20024;-43
2023/06/02 04:47:49;;;;;;;4.78;1.52;;;12.10;99.10;;;;;;5070356;28;20108;-42
2023/06/02 04:50:15;;;;;;;7.38;1.95;;;12.10;99.10;;;;;;5077477;28;20406;-43
2023/06/02 04:52:49;;;;;;;6.63;1.80;;;12.10;99.00;;;;;;5084914;28;20048;-42
2023/06/02 04:55:18;;;;;;;3.90;1.75;;;12.10;99.00;;;;;;5084800;28;20024;-42
2023/06/02 04:57:44;;;;;;;5.65;1.70;;;12.10;99.00;;;;;;5084232;28;20537;-43
2023/06/02 05:00:10;;;;;;;5.93;1.90;;;12.20;99.00;;;;;;5083830;28;20040;-42
2023/06/02 05:02:36;;;;;;;4.93;1.50;;;12.30;99.00;;;;;;5081313;28;20081;-42
2023/06/02 05:05:05;;;;;;;6.55;1.65;;;12.30;99.00;;;;;;5083757;28;20501;-42
2023/06/02 05:07:32;;;;;;;5.05;1.65;;;12.30;99.00;;;;;;5084594;28;20028;-42
2023/06/02 05:09:57;;;;;;;6.18;1.70;;;12.40;99.00;;;;;;5083600;28;20024;-43
2023/06/02 05:12:25;;;;;;;5.93;1.58;;;12.40;98.90;;;;;;5078998;28;20454;-43
2023/06/02 05:14:51;;;;;;;5.88;1.70;;;12.40;98.80;;;;;;5073352;28;20027;-42
2023/06/02 05:17:24;;;;;;;6.63;1.50;;;12.50;98.80;;;;;;5083416;28;20024;-41
2023/06/02 05:19:50;;;;;;;5.88;1.45;;;12.50;98.80;;;;;;5084438;28;20035;-43
2023/06/02 05:22:16;;;;;;;7.40;2.05;;;12.50;98.70;;;;;;5084611;28;20533;-42
2023/06/02 05:24:42;;;;;;;8.55;2.50;;;12.50;98.50;;;;;;5083917;28;20125;-42
2023/06/02 05:27:07;;;;;;;6.07;1.80;;;12.50;98.50;;;;;;5084460;28;20750;-42
2023/06/02 05:29:33;;;;;;;6.15;1.80;;;12.50;98.50;;;;;;5073388;28;20040;-43
2023/06/02 05:31:58;;;;;;;5.63;1.50;;;12.40;98.50;;;;;;5078098;28;20035;-43
2023/06/02 05:34:24;;;;;;;7.68;1.83;;;12.50;98.60;;;;;;5083597;28;20036;-42
2023/06/02 05:36:50;;;;;;;4.15;1.67;;;12.50;98.50;;;;;;5083414;28;20036;-42
2023/06/02 05:39:15;;;;;;;4.95;1.70;;;12.50;98.30;;;;;;5083278;28;20429;-43
2023/06/02 05:41:42;;;;;;;6.13;1.95;;;12.50;98.60;;;;;;5084460;28;20073;-43
2023/06/02 05:44:07;;;;;;;8.05;2.08;;;12.50;98.30;;;;;;5085149;28;20031;-42
2023/06/02 05:46:33;;;;;;;6.85;1.73;;;12.50;98.20;;;;;;5078513;28;20081;-43
2023/06/02 05:49:01;;;;;;;7.00;1.85;;;12.50;98.30;;;;;;5084085;28;20733;-43
2023/06/02 05:51:27;;;;;;;4.32;1.48;;;12.60;98.30;;;;;;5073594;28;20717;-44
2023/06/02 05:53:52;;;;;;;5.68;2.03;;;12.60;98.30;;;;;;5081673;28;20111;-43
2023/06/02 05:56:18;;;;;;;5.82;1.67;;;12.70;98.30;;;;;;5082948;28;20136;-42
2023/06/02 05:58:43;;;;;;;6.05;2.20;;;12.70;98.30;;;;;;5081421;28;20048;-43
2023/06/02 06:01:09;;;;;;;7.35;1.98;;;12.80;98.30;;;;;;5067402;28;20035;-43
2023/06/02 06:03:35;;;;;;;6.40;1.98;;;12.80;98.20;;;;;;5082261;28;20115;-42
2023/06/02 06:06:01;;;;;;;5.63;1.48;;;12.80;98.10;;;;;;5081842;28;20540;-42
2023/06/02 06:08:27;;;;;;;5.60;1.63;;;12.90;98.10;;;;;;5079231;28;20380;-42
2023/06/02 06:10:55;;;;;;;6.38;1.52;;;12.90;98.10;;;;;;5083348;28;20028;-42
2023/06/02 06:13:21;;;;;;;6.72;1.75;;;12.90;98.10;;;;;;5082745;28;20034;-43
2023/06/02 06:15:47;;;;;;;5.03;1.63;;;13.00;98.10;;;;;;5081517;28;20020;-42
2023/06/02 06:18:13;;;;;;;5.90;1.40;;;13.00;98.00;;;;;;5082688;28;20473;-42
2023/06/02 06:20:41;;;;;;;6.40;1.60;;;13.00;98.00;;;;;;5081713;28;20040;-42
2023/06/02 06:23:07;;;;;;;4.40;1.40;;;13.10;98.00;;;;;;5083717;28;20039;-43
2023/06/02 06:25:32;;;;;;;8.38;1.75;;;13.10;98.00;;;;;;5080331;28;20070;-42
2023/06/02 06:27:58;;;;;;;5.95;1.70;;;13.20;98.00;;;;;;5071966;28;20115;-41
2023/06/02 06:30:24;;;;;;;7.13;1.83;;;13.30;97.90;;;;;;5082739;28;20027;-43
2023/06/02 06:32:52;;;;;;;5.97;1.30;;;13.30;97.90;;;;;;5082818;28;20030;-43
2023/06/02 06:35:24;;;;;;;8.05;1.80;;;13.40;97.90;;;;;;5082520;28;20510;-43
2023/06/02 06:37:53;;;;;;;4.40;1.92;;;13.40;97.80;;;;;;5083054;28;20060;-41
2023/06/02 06:40:43;;;;;;;8.02;1.77;;;13.40;97.80;;;;;;5081868;28;20028;-42
2023/06/02 06:43:09;;;;;;;4.35;1.58;;;13.50;97.70;;;;;;5082354;28;20707;-42
2023/06/02 06:45:34;;;;;;;8.30;2.05;;;13.50;97.60;;;;;;5082772;28;20105;-42
2023/06/02 06:48:06;;;;;;;8.18;1.75;;;13.50;97.60;;;;;;5083227;28;20024;-43
2023/06/02 06:50:32;;;;;;;8.85;1.67;;;13.50;97.60;;;;;;5082195;28;20027;-42
2023/06/02 06:52:57;;;;;;;9.20;2.10;;;13.50;97.60;;;;;;5086600;28;20028;-43
2023/06/02 06:55:23;;;;;;;5.30;1.70;;;13.50;97.70;;;;;;5086387;28;20710;-42
2023/06/02 06:57:48;;;;;;;4.93;1.90;;;13.60;97.70;;;;;;5086398;28;20052;-43
2023/06/02 07:00:15;;;;;;;4.57;1.63;;;13.60;97.70;;;;;;5086959;28;20028;-43
2023/06/02 07:02:43;;;;;;;8.75;2.15;;;13.60;97.80;;;;;;5086072;28;20054;-43
2023/06/02 07:05:09;;;;;;;6.45;1.65;;;13.50;98.10;;;;;;5086787;28;20115;-43
2023/06/02 07:07:37;;;;;;;5.53;1.45;;;13.50;97.90;;;;;;5086354;28;20111;-42
2023/06/02 07:10:03;;;;;;;5.95;2.00;;;13.50;97.90;;;;;;5086443;28;20137;-42
2023/06/02 07:12:28;;;;;;;6.75;2.50;;;13.60;98.30;;;;;;5086450;28;20028;-42
2023/06/02 07:14:57;;;;;;;5.88;1.92;;;13.60;98.10;;;;;;5086875;28;20021;-42
2023/06/02 07:17:22;;;;;;;7.18;2.03;;;13.60;98.00;;;;;;5084628;28;20512;-41
2023/06/02 07:19:48;;;;;;;5.20;1.75;;;13.60;98.00;;;;;;5086370;28;20036;-41
2023/06/02 07:22:13;;;;;;;5.30;1.42;;;13.60;98.10;;;;;;5087113;28;20028;-41
2023/06/02 07:24:39;;;;;;;4.32;1.67;;;13.70;98.10;;;;;;5085280;28;20138;-42
2023/06/02 07:27:05;;;;;;;5.30;1.75;;;13.80;98.10;;;;;;5087165;28;20077;-43
2023/06/02 07:29:30;;;;;;;5.72;1.85;;;13.80;98.10;;;;;;5086195;28;20036;-43
2023/06/02 07:31:56;;;;;;;5.53;1.90;;;13.80;98.00;;;;;;5086088;28;20630;-42
2023/06/02 07:34:21;;;;;;;6.78;1.73;;;13.80;98.10;;;;;;5086499;28;20019;-42
2023/06/02 07:36:48;;;;;;;7.43;1.60;;;13.80;98.10;;;;;;5086785;28;20755;-44
2023/06/02 07:39:14;;;;;;;7.60;2.25;;;13.80;98.10;;;;;;5085656;28;20081;-44
2023/06/02 07:41:40;;;;;;;5.35;1.63;;;13.80;98.20;;;;;;5085582;28;20024;-44
2023/06/02 07:44:05;;;;;;;5.20;1.85;;;13.90;98.20;;;;;;5086866;28;20020;-43
2023/06/02 07:46:33;;;;;;;5.82;1.50;;;14.00;98.20;;;;;;5083928;28;20089;-43
2023/06/02 07:48:58;;;;;;;6.07;1.33;;;14.00;98.20;;;;;;5086073;28;20142;-43
2023/06/02 07:51:24;;;;;;;5.15;1.52;;;14.10;98.20;;;;;;5085714;28;20124;-42
2023/06/02 07:53:53;;;;;;;5.05;1.55;;;14.20;98.20;;;;;;5085347;28;20077;-42
2023/06/02 07:56:25;;;;;;;4.35;1.42;;;14.20;98.20;;;;;;5085260;28;20090;-43
2023/06/02 07:58:51;;;;;;;7.47;1.70;;;14.40;98.20;;;;;;5086255;28;20059;-42
2023/06/02 08:01:25;;;;;;;5.47;1.77;;;14.40;98.00;;;;;;5084370;28;20172;-43
2023/06/02 08:03:51;;;;;;;8.18;1.83;;;14.40;98.00;;;;;;5086295;28;20324;-42
2023/06/02 08:06:17;;;;;;;7.90;2.10;;;14.30;98.20;;;;;;5084965;28;20024;-43
2023/06/02 08:08:45;;;;;;;6.80;2.20;;;14.20;98.10;;;;;;5086084;28;20466;-42
2023/06/02 08:11:13;;;;;;;6.55;2.28;;;14.20;98.20;;;;;;5084636;28;20020;-43
2023/06/02 08:13:39;;;;;;;8.80;2.33;;;14.20;98.20;;;;;;5084313;28;20382;-41
2023/06/02 08:16:05;;;;;;;7.00;2.55;;;14.30;98.30;;;;;;5085698;28;20020;-43
2023/06/02 08:18:31;;;;;;;7.38;2.08;;;14.30;98.20;;;;;;5084549;28;20032;-43
2023/06/02 08:20:57;;;;;;;5.50;1.80;;;14.30;98.30;;;;;;5085013;28;20372;-44
2023/06/02 08:23:27;;;;;;;6.88;1.95;;;14.30;98.40;;;;;;5084836;28;20050;-43
2023/06/02 08:25:58;;;;;;;5.53;2.00;;;14.30;98.40;;;;;;5085832;28;20028;-43
2023/06/02 08:28:25;;;;;;;4.32;1.63;;;14.40;98.40;;;;;;5084133;28;20079;-43
2023/06/02 08:30:51;;;;;;;7.18;1.95;;;14.50;98.40;;;;;;5085435;28;20105;-42
2023/06/02 08:33:17;;;;;;;6.20;2.00;;;14.50;98.20;;;;;;5084808;28;20028;-43
2023/06/02 08:35:44;;;;;;;5.68;1.90;;;14.50;98.30;;;;;;5084690;28;20020;-45
2023/06/02 08:38:18;;;;;;;6.50;1.85;;;14.50;98.40;;;;;;5084960;28;20062;-43
2023/06/02 08:40:46;;;;;;;5.03;1.88;;;14.50;98.40;;;;;;5065439;28;20032;-43
2023/06/02 08:43:13;;;;;;;5.65;1.67;;;14.50;98.40;;;;;;5079079;28;20753;-43
2023/06/02 08:45:41;;;;;;;9.85;1.80;;;14.60;98.40;;;;;;5084171;28;20031;-43
2023/06/02 08:48:07;;;;;;;7.78;1.67;;;14.70;98.40;;;;;;5081330;28;20118;-43
2023/06/02 08:50:38;;;;;;;4.47;2.00;;;14.70;98.40;;;;;;5084401;28;20483;-43
2023/06/02 08:53:06;;;;;;;7.63;1.90;;;14.80;98.40;;;;;;5085097;28;20016;-43
2023/06/02 08:55:32;;;;;;;5.38;2.08;;;14.90;98.30;;;;;;5083537;28;20035;-44
2023/06/02 08:57:58;;;;;;;5.63;2.00;;;14.90;98.30;;;;;;5084383;28;20048;-44
2023/06/02 09:00:24;;;;;;;6.30;1.85;;;15.00;98.20;;;;;;5084076;28;20385;-43
2023/06/02 09:02:50;;;;;;;5.03;1.52;;;15.00;98.20;;;;;;5083898;28;20437;-43
2023/06/02 09:05:19;;;;;;;5.90;1.92;;;15.10;98.20;;;;;;5084298;28;20377;-42
2023/06/02 09:07:45;;;;;;;6.90;2.00;;;15.20;98.20;;;;;;5084308;28;20430;-43
2023/06/02 09:10:30;;;;;;;7.90;1.75;;;15.20;98.10;;;;;;5084035;28;20123;-43
2023/06/02 09:12:56;;;;;;;5.93;2.05;;;15.20;98.20;;;;;;5085296;28;20035;-42
2023/06/02 09:15:24;;;;;;;5.15;1.85;;;15.30;98.20;;;;;;5083448;28;20376;-43
2023/06/02 09:17:50;;;;;;;9.05;2.42;;;15.40;98.20;;;;;;5083822;28;20043;-41
2023/06/02 09:20:16;;;;;;;5.72;2.05;;;15.40;98.10;;;;;;5084063;28;20044;-42
2023/06/02 09:22:53;;;;;;;8.57;2.08;;;15.50;98.10;;;;;;5083846;28;20760;-42
2023/06/02 09:25:27;;;;;;;4.47;1.80;;;15.50;98.00;;;;;;5082810;28;20132;-41
2023/06/02 09:27:57;;;;;;;4.95;2.10;;;15.60;98.00;;;;;;5084236;28;20084;-42
2023/06/02 09:30:23;;;;;;;7.07;2.30;;;15.60;98.00;;;;;;5082704;28;20035;-42
2023/06/02 09:32:57;;;;;;;8.23;2.00;;;15.70;98.00;;;;;;5084272;28;20085;-42
2023/06/02 09:35:34;;;;;;;8.20;2.03;;;15.80;98.00;;;;;;5082131;28;20100;-42
2023/06/02 09:38:00;;;;;;;4.30;1.73;;;15.90;98.00;;;;;;5083662;28;20028;-43
2023/06/02 09:40:27;;;;;;;5.20;1.92;;;16.10;98.00;;;;;;5082840;28;20586;-42
2023/06/02 09:42:59;;;;;;;4.07;1.90;;;16.20;97.80;;;;;;5083985;28;20027;-42
2023/06/02 09:45:27;;;;;;;7.10;1.80;;;16.30;97.50;;;;;;5082381;28;20773;-43
2023/06/02 09:47:53;;;;;;;6.18;1.85;;;16.30;97.60;;;;;;5083190;28;20039;-42
2023/06/02 09:50:36;;;;;;;5.18;2.20;;;16.40;97.60;;;;;;5084118;28;20032;-42
2023/06/02 09:53:04;;;;;;;6.13;2.35;;;16.60;97.50;;;;;;5083625;28;20016;-43
2023/06/02 09:55:37;;;;;;;6.22;2.65;;;16.60;97.30;;;;;;5083119;28;20085;-42
2023/06/02 09:58:04;;;;;;;5.35;2.10;;;16.60;97.20;;;;;;5082898;28;20048;-43
2023/06/02 10:00:35;;;;;;;4.45;2.28;;;16.70;97.20;;;;;;5082075;28;20085;-43
2023/06/02 10:03:01;;;;;;;4.30;2.45;;;16.70;96.90;;;;;;5083766;28;20020;-43
2023/06/02 10:05:28;;;;;;;6.47;2.65;;;16.70;97.10;;;;;;5082898;28;20877;-43
2023/06/02 10:08:12;;;;;;;8.85;2.50;;;16.70;96.80;;;;;;5083002;28;20028;-43
2023/06/02 10:11:21;;;;;;;5.15;2.20;;;16.70;96.90;;;;;;5082658;28;20070;-43
2023/06/02 10:14:05;;;;;;;6.57;2.53;;;16.70;97.10;;;;;;5062611;28;20021;-42
2023/06/02 10:16:54;;;;;;;3.92;2.40;;;16.70;96.90;;;;;;5078568;28;20403;-43
2023/06/02 10:20:05;;;;;;;4.25;1.90;;;16.70;97.00;;;;;;5063151;28;20475;-43
2023/06/02 10:22:45;;;;;;;9.25;3.10;;;16.80;97.20;;;;;;5080918;28;20552;-44
2023/06/02 10:25:20;;;;;;;7.63;2.30;;;17.00;97.00;;;;;;5083348;28;20055;-43
2023/06/02 10:27:48;;;;;;;5.80;2.42;;;17.10;96.80;;;;;;5082364;28;20148;-45
2023/06/02 10:30:21;;;;;;;6.63;3.08;;;17.20;96.80;;;;;;5084265;28;20035;-43
2023/06/02 10:32:48;;;;;;;6.20;2.85;;;17.30;96.60;;;;;;5081006;28;20024;-43
2023/06/02 10:35:16;;;;;;;6.53;2.83;;;17.30;96.40;;;;;;5083368;28;20028;-44
2023/06/02 10:37:43;;;;;;;7.97;3.28;;;17.30;96.40;;;;;;5082541;28;20020;-43
2023/06/02 10:40:10;;;;;;;8.98;2.95;;;17.30;96.40;;;;;;5083467;28;20040;-43
2023/06/02 10:42:37;;;;;;;9.68;2.88;;;17.30;96.40;;;;;;5081604;28;20100;-44
2023/06/02 10:45:21;;;;;;;10.23;3.05;;;17.20;96.50;;;;;;5083581;28;20718;-42
2023/06/02 10:47:47;;;;;;;6.85;3.50;;;17.30;96.40;;;;;;5082065;28;20035;-44
2023/06/02 10:50:21;;;;;;;7.22;2.63;;;17.30;96.60;;;;;;5083318;28;20024;-43
2023/06/02 10:52:59;;;;;;;4.57;2.45;;;17.30;96.20;;;;;;5082674;28;20490;-42
2023/06/02 10:55:31;;;;;;;7.60;2.85;;;17.20;96.30;;;;;;5082532;28;20028;-42
2023/06/02 10:57:57;;;;;;;;;;;17.30;96.40;;;;;;5083562;28;20446;-42
2023/06/02 11:00:44;;;;;;;7.60;2.65;;;17.40;96.40;;;;;;5083604;28;19911;-43
2023/06/02 11:03:15;;;;;;;4.53;1.98;;;17.50;96.40;;;;;;5082667;28;20084;-43
2023/06/02 11:05:42;;;;;;;5.00;2.30;;;17.60;96.40;;;;;;5082316;28;20029;-43
2023/06/02 11:08:11;;;;;;;5.18;2.38;;;17.70;96.30;;;;;;5083485;28;20024;-43
2023/06/02 11:10:40;;;;;;;4.68;2.67;;;17.70;96.30;;;;;;5081712;28;20028;-43
2023/06/02 11:13:06;;;;;;;5.43;2.33;;;17.80;96.30;;;;;;5083393;28;20028;-42
2023/06/02 11:15:32;;;;;;;5.57;2.58;;;17.80;96.20;;;;;;5082175;28;20084;-42
2023/06/02 11:17:57;;;;;;;7.05;2.80;;;17.80;96.10;;;;;;5081753;28;20028;-43
2023/06/02 11:20:35;;;;;;;9.65;2.88;;;17.90;96.20;;;;;;5082180;28;20042;-41
2023/06/02 11:23:05;;;;;;;6.88;2.25;;;17.90;96.10;;;;;;5078146;28;20047;-42
2023/06/02 11:25:31;;;;;;;7.82;2.63;;;17.90;96.10;;;;;;5082087;28;20082;-43
2023/06/02 11:27:56;;;;;;;6.45;2.67;;;18.00;96.10;;;;;;5082587;28;20028;-43
2023/06/02 11:30:25;;;;;;;4.93;2.08;;;18.00;96.00;;;;;;5081910;28;20550;-42
2023/06/02 11:32:51;;;;;;;6.75;2.67;;;18.00;96.00;;;;;;5082596;28;20038;-43
2023/06/02 11:35:25;;;;;;;6.25;2.72;;;18.10;95.90;;;;;;5082507;28;20055;-42
2023/06/02 11:38:06;;;;;;;7.68;2.55;;;18.00;95.80;;;;;;5083360;28;20024;-43
2023/06/02 11:40:33;;;;;;;6.35;2.63;;;18.00;96.00;;;;;;5076114;28;20039;-42
2023/06/02 11:42:59;;;;;;;5.35;2.58;;;17.90;95.90;;;;;;5086173;28;20055;-43
2023/06/02 11:45:26;;;;;;;6.45;2.35;;;17.90;96.10;;;;;;5085147;28;20055;-42
2023/06/02 11:48:07;;;;;;;8.10;2.80;;;17.90;96.20;;;;;;5086332;28;20042;-42
2023/06/02 11:50:37;;;;;;;9.43;2.70;;;17.90;96.50;;;;;;5085650;28;20032;-42
2023/06/02 11:53:03;;;;;;;5.95;2.70;;;17.90;96.20;;;;;;5085803;28;20496;-42
2023/06/02 11:55:31;;;;;;;5.53;2.50;;;18.00;96.10;;;;;;5085651;28;20116;-43
2023/06/02 11:58:16;;;;;;;7.40;2.90;;;18.00;96.10;;;;;;5085056;28;20074;-42
2023/06/02 12:00:42;;;;;;;7.47;3.42;;;18.00;96.10;;;;;;5083064;28;20127;-43
2023/06/02 12:03:07;;;;;;;6.93;2.63;;;18.00;96.10;;;;;;5086325;28;20095;-43
2023/06/02 12:05:34;;;;;;;7.28;2.80;;;18.00;96.10;;;;;;5083983;28;20039;-42
2023/06/02 12:08:29;;;;;;;6.57;2.78;;;18.00;96.10;;;;;;5086522;28;20028;-42
2023/06/02 12:10:55;;;;;;;5.75;2.20;;;18.10;96.10;;;;;;5053028;28;20028;-43
2023/06/02 12:13:29;;;;;;;5.68;2.53;;;18.00;96.10;;;;;;5085016;28;20035;-43
2023/06/02 12:15:54;;;;;;;7.20;2.72;;;18.10;96.10;;;;;;5085625;28;20140;-42
2023/06/02 12:18:31;;;;;;;7.13;2.65;;;18.20;96.20;;;;;;5085848;28;20117;-42
2023/06/02 12:20:59;;;;;;;8.75;2.95;;;18.30;96.10;;;;;;5085651;28;20028;-43
2023/06/02 12:23:41;;;;;;;9.00;3.35;;;18.50;96.00;;;;;;5085746;28;20024;-43
2023/06/02 12:26:07;;;;;;;7.07;2.60;;;18.50;95.90;;;;;;5085733;28;20047;-42
2023/06/02 12:28:32;;;;;;;6.93;2.72;;;18.50;95.90;;;;;;5085277;28;20028;-42
2023/06/02 12:30:58;;;;;;;7.32;2.50;;;18.50;95.90;;;;;;5085401;28;20031;-43
2023/06/02 12:33:23;;;;;;;6.05;2.58;;;18.50;96.00;;;;;;5084282;28;20024;-43
2023/06/02 12:35:49;;;;;;;7.72;2.75;;;18.50;95.90;;;;;;5080904;28;20474;-42
2023/06/02 12:38:15;;;;;;;7.28;2.60;;;18.50;96.00;;;;;;5080714;28;21016;-43
2023/06/02 12:40:41;;;;;;;5.70;2.75;;;18.40;95.90;;;;;;5078976;28;20705;-43
2023/06/02 12:43:06;;;;;;;5.72;2.88;;;18.30;95.90;;;;;;5077394;28;20028;-43
2023/06/02 12:45:35;;;;;;;7.35;2.85;;;18.30;96.00;;;;;;5083987;28;20048;-42
2023/06/02 12:48:02;;;;;;;4.47;2.70;;;18.20;96.00;;;;;;5084992;28;20039;-42
2023/06/02 12:50:28;;;;;;;6.80;2.60;;;18.20;96.20;;;;;;5076526;28;20054;-42
2023/06/02 12:52:54;;;;;;;9.20;2.70;;;18.30;96.30;;;;;;5079175;28;20028;-41